Romoland, California
Current Conditions -  °F | °C
As of 11:58 PM on Sunday 25 Jan 2015 (Local Time) from KRIV Reporting Station
Broken Clouds Broken Clouds  
Wind Chill: 55°   Ceiling: 15000
Heat Index: 55°   Visibility: 10mi
Dew Point: 33°   Wind: 2mph
Humidity: 43%   Direction: 170°S
Pressure: 30.07"   Gusts: NA
Location:  33.7456°N, 117.17°W
Report Text: KRIV 260758Z AUTO 17002KT 10SM BKN150 13/00 A3007 RMK AO2 SLP174 T01280003 402460064
Loading
Personal Weather Stations






























Interactive Weather Map New forecast layout! Learn more

10-Day Weather Forecast

Advertisements
Track Severe Weather on mobile